createdAt,value
2022-11-15T00:02:40.250Z,5.90
2022-11-15T00:05:27.400Z,5.81
2022-11-15T00:08:14.648Z,5.83
2022-11-15T00:11:03.579Z,5.76
2022-11-15T00:13:50.718Z,5.77
2022-11-15T00:16:37.701Z,5.75
2022-11-15T00:19:24.819Z,5.63
2022-11-15T00:22:12.044Z,5.62
2022-11-15T00:24:59.162Z,5.63
2022-11-15T00:27:46.394Z,5.62
2022-11-15T00:30:33.540Z,5.63
2022-11-15T00:33:20.563Z,5.52
2022-11-15T00:36:12.732Z,5.51
2022-11-15T00:38:59.722Z,5.53
2022-11-15T00:41:46.862Z,5.47
2022-11-15T00:44:33.796Z,5.55
2022-11-15T00:47:20.909Z,5.43
2022-11-15T00:50:10.704Z,5.51
2022-11-15T00:53:01.310Z,5.52
2022-11-15T00:55:48.241Z,5.48
2022-11-15T00:58:35.337Z,5.44
2022-11-15T01:01:22.419Z,5.45
2022-11-15T01:04:09.613Z,5.47
2022-11-15T01:06:56.645Z,5.44
2022-11-15T01:09:43.556Z,5.46
2022-11-15T01:12:30.556Z,5.42
2022-11-15T01:15:17.984Z,5.38
2022-11-15T01:18:05.134Z,5.37
2022-11-15T01:20:52.054Z,5.31
2022-11-15T01:23:39.224Z,5.35
2022-11-15T01:26:26.865Z,5.35
2022-11-15T01:29:13.902Z,5.30
2022-11-15T01:32:01.047Z,5.31
2022-11-15T01:34:47.974Z,5.28
2022-11-15T01:37:34.961Z,5.19
2022-11-15T01:40:21.994Z,5.23
2022-11-15T01:43:27.558Z,5.19
2022-11-15T01:46:31.992Z,5.16
2022-11-15T01:49:22.142Z,5.07
2022-11-15T01:52:15.082Z,5.06
2022-11-15T01:55:22.221Z,5.10
2022-11-15T01:58:09.292Z,5.06
2022-11-15T02:00:56.527Z,5.04
2022-11-15T02:03:56.310Z,5.07
2022-11-15T02:06:45.038Z,5.03
2022-11-15T02:09:32.025Z,5.01
2022-11-15T02:12:22.857Z,4.96
2022-11-15T02:15:11.590Z,4.92
2022-11-15T02:18:24.576Z,4.82
2022-11-15T02:21:48.214Z,4.73
2022-11-15T02:25:14.033Z,4.59
2022-11-15T02:28:38.875Z,4.63
2022-11-15T02:31:40.778Z,4.70
2022-11-15T02:34:39.463Z,4.69
2022-11-15T02:38:03.293Z,4.64
2022-11-15T02:41:04.884Z,4.61
2022-11-15T02:44:50.081Z,4.62
2022-11-15T02:47:44.580Z,4.69
2022-11-15T02:50:34.025Z,4.71
2022-11-15T02:53:26.370Z,4.45
2022-11-15T02:56:13.680Z,4.45
2022-11-15T02:59:16.187Z,4.50
2022-11-15T03:02:56.497Z,4.39
2022-11-15T03:06:24.836Z,4.35
2022-11-15T03:09:29.232Z,4.34
2022-11-15T03:12:47.261Z,4.41
2022-11-15T03:15:43.114Z,4.39
2022-11-15T03:18:34.740Z,4.50
2022-11-15T03:21:23.481Z,4.54
2022-11-15T03:24:12.165Z,4.61
2022-11-15T03:27:01.738Z,4.62
2022-11-15T03:29:54.653Z,4.67
2022-11-15T03:32:45.507Z,4.59
2022-11-15T03:35:40.277Z,4.70
2022-11-15T03:38:31.161Z,4.61
2022-11-15T03:41:46.402Z,4.58
2022-11-15T03:44:42.435Z,4.62
2022-11-15T03:48:34.249Z,4.64
2022-11-15T03:51:21.806Z,4.41
2022-11-15T03:54:08.778Z,4.34
2022-11-15T03:56:55.825Z,4.32
2022-11-15T03:59:42.977Z,4.10
2022-11-15T04:02:30.217Z,4.07
2022-11-15T04:05:17.211Z,4.03
2022-11-15T04:08:04.501Z,4.07
2022-11-15T04:10:51.453Z,4.09
2022-11-15T04:13:38.573Z,4.14
2022-11-15T04:16:25.536Z,4.15
2022-11-15T04:19:31.118Z,4.19
2022-11-15T04:22:41.203Z,4.16
2022-11-15T04:25:32.126Z,4.15
2022-11-15T04:28:19.793Z,4.05
2022-11-15T04:31:06.696Z,4.03
2022-11-15T04:33:54.253Z,3.97
2022-11-15T04:36:59.900Z,3.93
2022-11-15T04:39:46.872Z,3.97
2022-11-15T04:42:33.823Z,3.99
2022-11-15T04:45:21.245Z,3.88
2022-11-15T04:48:08.340Z,3.88
2022-11-15T04:50:55.257Z,3.81
2022-11-15T04:53:42.232Z,3.92
2022-11-15T04:56:29.410Z,4.06
2022-11-15T04:59:16.555Z,4.03
2022-11-15T05:02:03.436Z,3.83
2022-11-15T05:04:50.358Z,3.80
2022-11-15T05:07:37.511Z,3.75
2022-11-15T05:10:24.521Z,3.91
2022-11-15T05:13:11.584Z,3.86
2022-11-15T05:15:58.508Z,3.77
2022-11-15T05:18:45.530Z,3.88
2022-11-15T05:21:33.449Z,3.73
2022-11-15T05:24:20.420Z,3.78
2022-11-15T05:27:07.313Z,3.83
2022-11-15T05:29:54.464Z,3.90
2022-11-15T05:32:41.725Z,3.90
2022-11-15T05:35:35.469Z,3.86
2022-11-15T05:38:22.918Z,3.91
2022-11-15T05:41:10.184Z,3.85
2022-11-15T05:43:58.484Z,3.95
2022-11-15T05:46:46.415Z,3.99
2022-11-15T05:49:36.841Z,4.03
2022-11-15T05:52:29.811Z,4.04
2022-11-15T05:55:16.905Z,4.06
2022-11-15T05:58:03.879Z,3.95
2022-11-15T06:00:50.810Z,3.80
2022-11-15T06:03:39.236Z,3.85
2022-11-15T06:06:28.799Z,3.88
2022-11-15T06:09:15.734Z,3.91
2022-11-15T06:12:02.671Z,3.85
2022-11-15T06:14:49.815Z,3.72
2022-11-15T06:17:36.807Z,3.70
2022-11-15T06:20:24.621Z,3.64
2022-11-15T06:23:11.533Z,3.55
2022-11-15T06:26:03.097Z,3.67
2022-11-15T06:28:50.017Z,3.55
2022-11-15T06:31:37.036Z,3.79
2022-11-15T06:34:23.946Z,3.91
2022-11-15T06:37:11.048Z,3.91
2022-11-15T06:39:58.172Z,3.91
2022-11-15T06:42:45.178Z,3.95
2022-11-15T06:45:32.652Z,3.94
2022-11-15T06:48:19.793Z,4.01
2022-11-15T06:51:06.971Z,4.17
2022-11-15T06:53:53.935Z,4.21
2022-11-15T06:56:40.859Z,4.13
2022-11-15T06:59:28.103Z,4.23
2022-11-15T07:02:15.010Z,4.29
2022-11-15T07:05:01.914Z,4.34
2022-11-15T07:07:55.835Z,4.40
2022-11-15T07:10:42.999Z,4.44
2022-11-15T07:13:34.688Z,4.59
2022-11-15T07:16:22.155Z,4.67
2022-11-15T07:19:10.027Z,4.71
2022-11-15T07:21:57.167Z,4.82
2022-11-15T07:24:44.281Z,4.98
2022-11-15T07:27:31.293Z,4.93
2022-11-15T07:30:18.638Z,4.88
2022-11-15T07:33:05.848Z,4.78
2022-11-15T07:35:52.996Z,4.98
2022-11-15T07:38:43.026Z,5.04
2022-11-15T07:41:30.626Z,5.12
2022-11-15T07:44:17.736Z,5.24
2022-11-15T07:47:04.773Z,5.30
2022-11-15T07:49:51.675Z,5.46
2022-11-15T07:52:38.601Z,5.44
2022-11-15T07:55:27.270Z,5.47
2022-11-15T07:58:14.459Z,5.44
2022-11-15T08:01:09.807Z,5.24
2022-11-15T08:03:56.866Z,5.37
2022-11-15T08:06:43.837Z,5.35
2022-11-15T08:09:30.846Z,5.39
2022-11-15T08:12:18.125Z,5.43
2022-11-15T08:15:05.837Z,5.44
2022-11-15T08:18:01.529Z,5.55
2022-11-15T08:20:48.637Z,5.55
2022-11-15T08:23:35.813Z,5.50
2022-11-15T08:26:22.836Z,5.42
2022-11-15T08:29:10.014Z,5.45
2022-11-15T08:31:57.201Z,5.55
2022-11-15T08:34:44.386Z,5.63
2022-11-15T08:37:31.307Z,5.72
2022-11-15T08:40:19.700Z,5.71
2022-11-15T08:43:06.992Z,5.67
2022-11-15T08:45:57.149Z,5.72
2022-11-15T08:48:44.080Z,5.70
2022-11-15T08:51:31.232Z,5.82
2022-11-15T08:54:18.390Z,5.89
2022-11-15T08:57:05.350Z,5.92
2022-11-15T08:59:52.264Z,5.98
2022-11-15T09:02:42.451Z,5.86
2022-11-15T09:05:29.565Z,5.84
2022-11-15T09:08:40.703Z,5.93
2022-11-15T09:11:24.263Z,6.02
2022-11-15T09:14:15.145Z,6.01
2022-11-15T09:17:02.437Z,5.96
2022-11-15T09:19:49.391Z,5.87
2022-11-15T09:22:37.484Z,5.79
2022-11-15T09:25:24.609Z,5.84
2022-11-15T09:28:11.749Z,5.94
2022-11-15T09:31:00.365Z,6.10
2022-11-15T09:33:47.355Z,6.22
2022-11-15T09:36:34.506Z,6.28
2022-11-15T09:39:21.684Z,6.28
2022-11-15T09:42:47.296Z,6.23
2022-11-15T09:46:17.424Z,6.29
2022-11-15T09:49:05.653Z,6.16
2022-11-15T09:51:55.166Z,6.26
2022-11-15T09:54:56.010Z,6.29
2022-11-15T09:58:17.823Z,6.34
2022-11-15T10:01:12.889Z,6.31
2022-11-15T10:04:00.421Z,6.37
2022-11-15T10:07:21.662Z,6.26
2022-11-15T10:10:37.040Z,6.43
2022-11-15T10:13:27.664Z,6.35
2022-11-15T10:17:06.764Z,6.40
2022-11-15T10:20:33.984Z,6.51
2022-11-15T10:23:23.260Z,6.59
2022-11-15T10:26:17.163Z,6.63
2022-11-15T10:29:04.462Z,6.62
2022-11-15T10:31:52.040Z,6.65
2022-11-15T10:34:39.009Z,6.51
2022-11-15T10:37:31.009Z,6.53
2022-11-15T10:40:23.658Z,6.52
2022-11-15T10:43:20.281Z,6.48
2022-11-15T10:46:45.711Z,6.59
2022-11-15T10:49:32.481Z,6.66
2022-11-15T10:52:21.318Z,6.67
2022-11-15T10:55:35.047Z,6.58
2022-11-15T10:58:59.995Z,6.61
2022-11-15T11:01:48.831Z,6.50
2022-11-15T11:04:52.094Z,6.50
2022-11-15T11:07:38.940Z,6.44
2022-11-15T11:13:38.673Z,6.56
2022-11-15T11:16:56.189Z,6.46
2022-11-15T11:20:04.648Z,6.61
2022-11-15T11:23:29.070Z,6.58
2022-11-15T11:26:55.787Z,6.59
2022-11-15T11:30:19.597Z,6.58
2022-11-15T11:33:30.683Z,6.42
2022-11-15T11:36:38.059Z,6.47
2022-11-15T11:40:09.092Z,6.57
2022-11-15T11:50:16.733Z,6.47
2022-11-15T11:53:19.704Z,6.46
2022-11-15T12:03:24.656Z,6.43
2022-11-15T12:06:36.769Z,6.33
2022-11-15T12:09:36.372Z,6.45
2022-11-15T12:13:11.892Z,6.43
2022-11-15T12:16:23.049Z,6.40
2022-11-15T12:19:09.962Z,6.55
2022-11-15T12:22:15.097Z,6.51
2022-11-15T12:25:21.935Z,6.59
2022-11-15T12:28:33.785Z,6.58
2022-11-15T12:31:42.980Z,6.57
2022-11-15T12:34:39.053Z,6.57
2022-11-15T12:37:48.903Z,6.51
2022-11-15T12:40:39.112Z,6.51
2022-11-15T12:43:45.895Z,6.51
2022-11-15T12:47:23.104Z,6.56
2022-11-15T12:50:14.688Z,6.64
2022-11-15T12:53:31.157Z,6.70
2022-11-15T12:56:21.938Z,6.68
2022-11-15T12:59:08.919Z,6.69
2022-11-15T13:02:00.876Z,6.50
2022-11-15T13:04:48.685Z,6.54
2022-11-15T13:08:01.836Z,6.53
2022-11-15T13:10:48.822Z,6.60
2022-11-15T13:13:46.391Z,6.70
2022-11-15T13:16:33.611Z,6.83
2022-11-15T13:19:24.121Z,6.78
2022-11-15T13:22:30.253Z,6.79
2022-11-15T13:25:58.985Z,6.71
2022-11-15T13:28:50.414Z,6.66
2022-11-15T13:31:44.004Z,6.71
2022-11-15T13:37:42.096Z,6.53
2022-11-15T13:40:35.421Z,6.48
2022-11-15T13:43:43.223Z,6.53
2022-11-15T13:46:34.676Z,6.50
2022-11-15T13:49:30.949Z,6.59
2022-11-15T13:52:18.318Z,6.49
2022-11-15T13:55:20.493Z,6.54
2022-11-15T13:58:10.254Z,6.55
2022-11-15T14:01:05.647Z,6.46
2022-11-15T14:04:01.625Z,6.41
2022-11-15T14:06:51.869Z,6.53
2022-11-15T14:09:41.967Z,6.49
2022-11-15T14:12:34.825Z,6.51
2022-11-15T14:15:32.936Z,6.49
2022-11-15T14:18:56.620Z,6.49
2022-11-15T14:22:32.002Z,6.32
2022-11-15T14:25:22.414Z,6.32
2022-11-15T14:28:35.818Z,6.34
2022-11-15T14:31:23.155Z,6.32
2022-11-15T14:34:10.061Z,6.24
2022-11-15T14:36:56.985Z,6.27
2022-11-15T14:39:44.150Z,6.24
2022-11-15T14:42:31.103Z,6.22
2022-11-15T14:45:21.833Z,6.20
2022-11-15T14:48:08.753Z,6.26
2022-11-15T14:50:55.900Z,6.30
2022-11-15T14:53:43.301Z,6.23
2022-11-15T14:56:30.223Z,6.24
2022-11-15T14:59:17.213Z,6.22
2022-11-15T15:02:16.526Z,6.21
2022-11-15T15:05:18.945Z,6.13
2022-11-15T15:08:06.946Z,6.08
2022-11-15T15:10:53.973Z,6.11
2022-11-15T15:13:41.138Z,6.07
2022-11-15T15:16:28.299Z,6.00
2022-11-15T15:19:15.229Z,5.88
2022-11-15T15:22:02.156Z,5.93
2022-11-15T15:24:49.422Z,5.99
2022-11-15T15:27:36.348Z,5.98
2022-11-15T15:30:24.484Z,5.83
2022-11-15T15:33:11.470Z,5.79
2022-11-15T15:35:58.689Z,5.88
2022-11-15T15:38:47.614Z,5.95
2022-11-15T15:41:34.588Z,5.94
2022-11-15T15:44:21.489Z,5.95
2022-11-15T15:47:14.709Z,5.96
2022-11-15T15:50:01.896Z,5.92
2022-11-15T15:52:50.564Z,6.02
2022-11-15T15:55:38.053Z,6.00
2022-11-15T15:58:25.235Z,5.85
2022-11-15T16:01:12.203Z,5.87
2022-11-15T16:03:59.166Z,5.92
2022-11-15T16:06:46.913Z,5.94
2022-11-15T16:09:52.895Z,5.97
2022-11-15T16:12:40.003Z,5.98
2022-11-15T16:15:29.256Z,5.94
2022-11-15T16:18:17.694Z,5.89
2022-11-15T16:21:04.877Z,5.92
2022-11-15T16:23:52.172Z,5.85
2022-11-15T16:26:39.399Z,5.89
2022-11-15T16:29:26.285Z,6.00
2022-11-15T16:32:14.249Z,5.95
2022-11-15T16:35:01.395Z,5.86
2022-11-15T16:37:48.345Z,5.87
2022-11-15T16:40:36.093Z,5.93
2022-11-15T16:43:23.358Z,5.97
2022-11-15T16:46:17.896Z,6.05
2022-11-15T16:49:04.816Z,6.07
2022-11-15T16:51:51.804Z,6.07
2022-11-15T16:54:38.804Z,6.05
2022-11-15T16:57:25.904Z,6.05
2022-11-15T17:00:16.645Z,6.06
2022-11-15T17:03:03.906Z,6.14
2022-11-15T17:05:51.219Z,6.20
2022-11-15T17:08:38.244Z,6.31
2022-11-15T17:11:25.170Z,6.33
2022-11-15T17:14:12.725Z,6.31
2022-11-15T17:16:59.876Z,6.29
2022-11-15T17:19:47.304Z,6.25
2022-11-15T17:22:34.490Z,6.24
2022-11-15T17:25:21.460Z,6.34
2022-11-15T17:28:08.734Z,6.33
2022-11-15T17:30:55.787Z,6.37
2022-11-15T17:33:42.834Z,6.33
2022-11-15T17:36:30.355Z,6.26
2022-11-15T17:39:19.614Z,6.33
2022-11-15T17:42:06.769Z,6.29
2022-11-15T17:44:53.906Z,6.21
2022-11-15T17:47:40.849Z,6.23
2022-11-15T17:50:27.976Z,6.21
2022-11-15T17:53:15.074Z,6.28
2022-11-15T17:56:03.857Z,6.38
2022-11-15T17:58:56.024Z,6.26
2022-11-15T18:01:43.199Z,6.31
2022-11-15T18:04:30.133Z,6.31
2022-11-15T18:07:17.111Z,6.17
2022-11-15T18:10:04.822Z,6.11
2022-11-15T18:12:51.753Z,6.09
2022-11-15T18:15:38.823Z,6.14
2022-11-15T18:18:26.082Z,6.13
2022-11-15T18:21:18.792Z,6.12
2022-11-15T18:24:06.168Z,6.17
2022-11-15T18:26:53.601Z,6.26
2022-11-15T18:29:40.622Z,6.12
2022-11-15T18:32:27.534Z,6.09
2022-11-15T18:35:14.765Z,6.11
2022-11-15T18:38:01.870Z,6.15
2022-11-15T18:40:48.852Z,6.18
2022-11-15T18:43:36.781Z,6.09
2022-11-15T18:46:25.826Z,6.09
2022-11-15T18:49:14.779Z,6.08
2022-11-15T18:52:01.938Z,6.04
2022-11-15T18:54:48.908Z,6.10
2022-11-15T18:57:36.029Z,6.13
2022-11-15T19:00:23.290Z,6.11
2022-11-15T19:03:10.274Z,6.12
2022-11-15T19:06:04.890Z,6.16
2022-11-15T19:08:54.644Z,6.16
2022-11-15T19:11:43.037Z,6.18
2022-11-15T19:14:30.075Z,6.13
2022-11-15T19:17:16.998Z,6.15
2022-11-15T19:20:04.552Z,6.10
2022-11-15T19:22:51.672Z,6.14
2022-11-15T19:25:38.618Z,6.20
2022-11-15T19:28:27.181Z,6.26
2022-11-15T19:31:16.052Z,6.23
2022-11-15T19:34:04.986Z,6.26
2022-11-15T19:36:51.985Z,6.17
2022-11-15T19:39:41.167Z,6.16
2022-11-15T19:42:28.601Z,6.13
2022-11-15T19:45:15.882Z,6.20
2022-11-15T19:48:02.877Z,6.17
2022-11-15T19:50:50.301Z,6.13
2022-11-15T19:53:38.183Z,6.07
2022-11-15T19:56:25.767Z,6.11
2022-11-15T19:59:13.591Z,6.07
2022-11-15T20:02:02.894Z,6.09
2022-11-15T20:04:49.820Z,6.05
2022-11-15T20:07:37.023Z,6.10
2022-11-15T20:10:24.018Z,6.10
2022-11-15T20:13:10.921Z,6.03
2022-11-15T20:15:58.072Z,6.05
2022-11-15T20:18:45.952Z,6.03
2022-11-15T20:21:32.982Z,6.06
2022-11-15T20:24:19.938Z,6.07
2022-11-15T20:27:07.253Z,6.03
2022-11-15T20:29:54.622Z,6.00
2022-11-15T20:32:41.586Z,6.02
2022-11-15T20:35:28.568Z,6.06
2022-11-15T20:38:16.034Z,6.11
2022-11-15T20:41:03.578Z,6.11
2022-11-15T20:43:50.565Z,6.10
2022-11-15T20:46:37.440Z,6.13
2022-11-15T20:49:24.608Z,6.12
2022-11-15T20:52:11.531Z,6.12
2022-11-15T20:54:58.495Z,6.13
2022-11-15T20:57:45.492Z,6.11
2022-11-15T21:00:33.132Z,6.02
2022-11-15T21:03:20.243Z,6.10
2022-11-15T21:06:08.166Z,6.17
2022-11-15T21:09:14.285Z,6.06
2022-11-15T21:12:13.478Z,6.01
2022-11-15T21:15:00.548Z,6.00
2022-11-15T21:17:47.537Z,6.01
2022-11-15T21:20:34.737Z,5.98
2022-11-15T21:23:21.939Z,6.03
2022-11-15T21:26:09.109Z,5.95
2022-11-15T21:28:56.057Z,5.99
2022-11-15T21:31:44.571Z,5.98
2022-11-15T21:34:31.696Z,5.95
2022-11-15T21:37:18.587Z,5.94
2022-11-15T21:40:06.370Z,5.90
2022-11-15T21:42:53.254Z,5.92
2022-11-15T21:45:40.434Z,5.88
2022-11-15T21:48:28.798Z,5.90
2022-11-15T21:51:15.717Z,5.91
2022-11-15T21:54:02.692Z,5.91
2022-11-15T21:56:49.674Z,5.96
2022-11-15T21:59:56.498Z,5.91
2022-11-15T22:02:43.506Z,5.87
2022-11-15T22:05:30.414Z,5.93
2022-11-15T22:08:17.525Z,5.85
2022-11-15T22:11:04.773Z,5.76
2022-11-15T22:13:51.746Z,5.71
2022-11-15T22:16:39.245Z,5.74
2022-11-15T22:19:26.252Z,5.83
2022-11-15T22:22:13.448Z,5.85
2022-11-15T22:25:00.444Z,5.86
2022-11-15T22:27:47.454Z,5.86
2022-11-15T22:30:34.662Z,5.93
2022-11-15T22:33:24.629Z,5.90
2022-11-15T22:36:12.652Z,5.71
2022-11-15T22:38:59.697Z,5.64
2022-11-15T22:41:46.960Z,5.68
2022-11-15T22:44:34.127Z,5.69
2022-11-15T22:47:21.402Z,5.71
2022-11-15T22:50:08.881Z,5.75
2022-11-15T22:52:56.120Z,5.79
2022-11-15T22:55:43.304Z,5.78
2022-11-15T22:58:32.157Z,5.80
2022-11-15T23:01:21.982Z,5.80
2022-11-15T23:04:09.214Z,5.87
2022-11-15T23:06:57.035Z,5.88
2022-11-15T23:09:47.699Z,5.86
2022-11-15T23:12:56.413Z,5.84
2022-11-15T23:16:07.664Z,5.80
2022-11-15T23:18:57.294Z,5.77
2022-11-15T23:22:05.250Z,5.77
2022-11-15T23:24:53.269Z,5.75
2022-11-15T23:27:40.864Z,5.77
2022-11-15T23:30:46.288Z,5.77
2022-11-15T23:33:52.112Z,5.73
2022-11-15T23:36:40.642Z,5.73
2022-11-15T23:39:28.075Z,5.73
2022-11-15T23:42:19.721Z,5.70
2022-11-15T23:45:07.860Z,5.68
2022-11-15T23:48:00.990Z,5.72
2022-11-15T23:50:48.868Z,5.79
2022-11-15T23:53:35.848Z,5.76
2022-11-15T23:56:23.294Z,5.68
2022-11-15T23:59:10.469Z,5.67
